New Albany, PA (18833)

10:47 PM EST on February 06, 2016 (GMT -0500)
APRSWXNET | | Change Station
CLOSE
Current Station
Personal Weather Station
Location: New Albany, PA
Elevation: 1863 ft
Nearby Weather Stations

Elev 1863 ft 41.61 °N, 76.53 °W | Updated 30 minutes ago

Overcast
Overcast
27 °F
Feels Like 27 °F
N
0
Wind Variable Wind from West
Gusts 0.0 mph

Today
High -- | Low -- °F
--% Chance of Precip.
Yesterday
High -- | Low -- °F
Precip. -- in
Pressure 30.25 in
Visibility 10.0 miles
Clouds Clear
Windchill 27 °F
Dew Point 21 °F
Humidity 77%
Rainfall in
Snow Depth Not available.
7:12 AM 5:27 PM
Waning Crescent, 3% visible
METAR KIPT 070254Z 00000KT 10SM CLR M02/M07 A3022 RMK AO2 SLP241 T10171072 51006 $
Pressure 30.25 in
Visibility 10.0 miles
Clouds Clear
Windchill 27 °F
Dew Point 21 °F
Humidity 77%
Rainfall in
Snow Depth Not available.
7:12 AM 5:27 PM
Waning Crescent, 3% visible
METAR KIPT 070254Z 00000KT 10SM CLR M02/M07 A3022 RMK AO2 SLP241 T10171072 51006 $

10-Day Weather Forecast

Almanac

Astronomy

Feb. 06, 2016 Rise Set
Actual Time
Civil Twilight
Nautical Twilight
Astronomical Twilight
Moon
Length of Visible Light
Length of Day
Tomorrow will be .
, % of the Moon is Illuminated

Today's Extremes

State Highs State Lows

Community

WunderPhotos

Upload Photos

1,891,154 photos uploaded!

WunderBlog® & News

Nearby

Air Quality

  Air Quality AQ Index Pollutant
Not available.

Snow Depth

Station Depth Elevation

Earthquake Activity

City Distance Mag. Time & Date
Minimum magnitude displayed is 2.5.

Coastal Water Temperatures

Place Temperature

Stations

Nearby Weather Stations

Station Location Temp. Windchill Dew Point Humidity Wind Precip. Elev Updated Type
                   

Watches & Warnings

There are currently no watches in effect.